sensor_id;sensor_type;location;lat;lon;timestamp;P1;durP1;ratioP1;P2;durP2;ratioP2
20713;SDS011;10518;50.742;4.226;2023-11-21T00:01:39;25.90;;;11.43;;
20713;SDS011;10518;50.742;4.226;2023-11-21T00:04:05;23.80;;;11.20;;
20713;SDS011;10518;50.742;4.226;2023-11-21T00:06:32;30.70;;;12.40;;
20713;SDS011;10518;50.742;4.226;2023-11-21T00:08:58;27.45;;;12.52;;
20713;SDS011;10518;50.742;4.226;2023-11-21T00:11:23;22.65;;;11.48;;
20713;SDS011;10518;50.742;4.226;2023-11-21T00:13:50;29.50;;;12.77;;
20713;SDS011;10518;50.742;4.226;2023-11-21T00:16:16;25.70;;;12.43;;
20713;SDS011;10518;50.742;4.226;2023-11-21T00:18:42;27.07;;;12.67;;
20713;SDS011;10518;50.742;4.226;2023-11-21T00:21:07;25.47;;;12.43;;
20713;SDS011;10518;50.742;4.226;2023-11-21T00:23:34;23.80;;;11.97;;
20713;SDS011;10518;50.742;4.226;2023-11-21T00:26:00;27.50;;;13.00;;
20713;SDS011;10518;50.742;4.226;2023-11-21T00:28:25;25.03;;;12.73;;
20713;SDS011;10518;50.742;4.226;2023-11-21T00:30:51;26.42;;;12.25;;
20713;SDS011;10518;50.742;4.226;2023-11-21T00:33:17;23.10;;;11.03;;
20713;SDS011;10518;50.742;4.226;2023-11-21T00:35:43;22.93;;;10.73;;
20713;SDS011;10518;50.742;4.226;2023-11-21T00:38:09;27.37;;;11.47;;
20713;SDS011;10518;50.742;4.226;2023-11-21T00:40:35;23.77;;;11.63;;
20713;SDS011;10518;50.742;4.226;2023-11-21T00:43:00;26.20;;;12.30;;
20713;SDS011;10518;50.742;4.226;2023-11-21T00:45:26;21.63;;;10.70;;
20713;SDS011;10518;50.742;4.226;2023-11-21T00:47:52;27.87;;;11.90;;
20713;SDS011;10518;50.742;4.226;2023-11-21T00:50:18;25.40;;;10.70;;
20713;SDS011;10518;50.742;4.226;2023-11-21T00:52:44;28.37;;;12.20;;
20713;SDS011;10518;50.742;4.226;2023-11-21T00:55:09;26.03;;;12.50;;
20713;SDS011;10518;50.742;4.226;2023-11-21T00:57:37;26.73;;;11.97;;
20713;SDS011;10518;50.742;4.226;2023-11-21T01:00:02;28.93;;;12.27;;
20713;SDS011;10518;50.742;4.226;2023-11-21T01:02:32;24.83;;;10.80;;
20713;SDS011;10518;50.742;4.226;2023-11-21T01:05:00;28.83;;;11.13;;
20713;SDS011;10518;50.742;4.226;2023-11-21T01:07:26;27.60;;;11.87;;
20713;SDS011;10518;50.742;4.226;2023-11-21T01:09:52;31.63;;;12.93;;
20713;SDS011;10518;50.742;4.226;2023-11-21T01:12:17;25.33;;;11.73;;
20713;SDS011;10518;50.742;4.226;2023-11-21T01:14:43;24.60;;;11.50;;
20713;SDS011;10518;50.742;4.226;2023-11-21T01:17:10;26.27;;;11.23;;
20713;SDS011;10518;50.742;4.226;2023-11-21T01:19:35;23.80;;;11.07;;
20713;SDS011;10518;50.742;4.226;2023-11-21T01:22:02;22.60;;;11.17;;
20713;SDS011;10518;50.742;4.226;2023-11-21T01:24:28;24.90;;;11.83;;
20713;SDS011;10518;50.742;4.226;2023-11-21T01:26:54;25.73;;;12.73;;
20713;SDS011;10518;50.742;4.226;2023-11-21T01:29:20;26.07;;;11.73;;
20713;SDS011;10518;50.742;4.226;2023-11-21T01:31:45;28.20;;;11.40;;
20713;SDS011;10518;50.742;4.226;2023-11-21T01:34:12;29.60;;;12.77;;
20713;SDS011;10518;50.742;4.226;2023-11-21T01:36:39;24.97;;;12.73;;
20713;SDS011;10518;50.742;4.226;2023-11-21T01:39:04;30.57;;;13.13;;
20713;SDS011;10518;50.742;4.226;2023-11-21T01:41:33;28.87;;;13.63;;
20713;SDS011;10518;50.742;4.226;2023-11-21T01:44:00;29.27;;;12.70;;
20713;SDS011;10518;50.742;4.226;2023-11-21T01:46:25;28.77;;;13.40;;
20713;SDS011;10518;50.742;4.226;2023-11-21T01:48:51;26.13;;;12.77;;
20713;SDS011;10518;50.742;4.226;2023-11-21T01:51:20;32.00;;;13.67;;
20713;SDS011;10518;50.742;4.226;2023-11-21T01:53:45;32.07;;;13.20;;
20713;SDS011;10518;50.742;4.226;2023-11-21T01:56:11;26.67;;;12.63;;
20713;SDS011;10518;50.742;4.226;2023-11-21T01:58:38;28.53;;;13.90;;
20713;SDS011;10518;50.742;4.226;2023-11-21T02:01:04;28.73;;;12.87;;
20713;SDS011;10518;50.742;4.226;2023-11-21T02:03:30;30.13;;;14.27;;
20713;SDS011;10518;50.742;4.226;2023-11-21T02:05:56;28.73;;;14.03;;
20713;SDS011;10518;50.742;4.226;2023-11-21T02:08:22;29.63;;;13.43;;
20713;SDS011;10518;50.742;4.226;2023-11-21T02:10:47;27.83;;;13.63;;
20713;SDS011;10518;50.742;4.226;2023-11-21T02:13:13;29.70;;;13.33;;
20713;SDS011;10518;50.742;4.226;2023-11-21T02:15:38;33.47;;;13.57;;
20713;SDS011;10518;50.742;4.226;2023-11-21T02:18:04;29.50;;;13.50;;
20713;SDS011;10518;50.742;4.226;2023-11-21T02:20:31;31.63;;;13.57;;
20713;SDS011;10518;50.742;4.226;2023-11-21T02:23:00;29.23;;;12.80;;
20713;SDS011;10518;50.742;4.226;2023-11-21T02:25:26;32.57;;;15.83;;
20713;SDS011;10518;50.742;4.226;2023-11-21T02:27:58;30.83;;;15.03;;
20713;SDS011;10518;50.742;4.226;2023-11-21T02:30:25;33.03;;;14.50;;
20713;SDS011;10518;50.742;4.226;2023-11-21T02:32:53;35.40;;;16.17;;
20713;SDS011;10518;50.742;4.226;2023-11-21T02:35:19;34.03;;;15.30;;
20713;SDS011;10518;50.742;4.226;2023-11-21T02:37:49;30.70;;;15.60;;
20713;SDS011;10518;50.742;4.226;2023-11-21T02:40:15;31.43;;;15.67;;
20713;SDS011;10518;50.742;4.226;2023-11-21T02:42:46;33.37;;;14.87;;
20713;SDS011;10518;50.742;4.226;2023-11-21T02:45:13;29.60;;;15.40;;
20713;SDS011;10518;50.742;4.226;2023-11-21T02:47:41;35.43;;;16.27;;
20713;SDS011;10518;50.742;4.226;2023-11-21T02:50:08;27.90;;;13.60;;
20713;SDS011;10518;50.742;4.226;2023-11-21T02:52:34;32.13;;;15.93;;
20713;SDS011;10518;50.742;4.226;2023-11-21T02:55:01;34.40;;;16.30;;
20713;SDS011;10518;50.742;4.226;2023-11-21T02:57:29;35.07;;;15.67;;
20713;SDS011;10518;50.742;4.226;2023-11-21T02:59:55;33.83;;;15.60;;
20713;SDS011;10518;50.742;4.226;2023-11-21T03:02:21;34.57;;;15.50;;
20713;SDS011;10518;50.742;4.226;2023-11-21T03:04:47;37.00;;;15.73;;
20713;SDS011;10518;50.742;4.226;2023-11-21T03:07:14;34.27;;;15.37;;
20713;SDS011;10518;50.742;4.226;2023-11-21T03:09:40;33.20;;;15.00;;
20713;SDS011;10518;50.742;4.226;2023-11-21T03:12:06;30.63;;;13.57;;
20713;SDS011;10518;50.742;4.226;2023-11-21T03:14:31;35.83;;;14.40;;
20713;SDS011;10518;50.742;4.226;2023-11-21T03:16:57;28.80;;;14.20;;
20713;SDS011;10518;50.742;4.226;2023-11-21T03:19:30;35.97;;;14.53;;
20713;SDS011;10518;50.742;4.226;2023-11-21T03:21:56;30.90;;;14.97;;
20713;SDS011;10518;50.742;4.226;2023-11-21T03:24:21;33.67;;;15.37;;
20713;SDS011;10518;50.742;4.226;2023-11-21T03:26:47;34.67;;;14.47;;
20713;SDS011;10518;50.742;4.226;2023-11-21T03:29:13;35.17;;;15.43;;
20713;SDS011;10518;50.742;4.226;2023-11-21T03:31:40;33.07;;;15.33;;
20713;SDS011;10518;50.742;4.226;2023-11-21T03:34:05;36.73;;;16.90;;
20713;SDS011;10518;50.742;4.226;2023-11-21T03:36:31;35.27;;;15.87;;
20713;SDS011;10518;50.742;4.226;2023-11-21T03:38:57;32.97;;;15.30;;
20713;SDS011;10518;50.742;4.226;2023-11-21T03:41:22;32.43;;;15.13;;
20713;SDS011;10518;50.742;4.226;2023-11-21T03:43:48;47.20;;;15.73;;
20713;SDS011;10518;50.742;4.226;2023-11-21T03:46:14;34.70;;;15.30;;
20713;SDS011;10518;50.742;4.226;2023-11-21T03:48:39;31.13;;;15.03;;
20713;SDS011;10518;50.742;4.226;2023-11-21T03:51:05;31.23;;;15.57;;
20713;SDS011;10518;50.742;4.226;2023-11-21T03:53:31;30.53;;;15.27;;
20713;SDS011;10518;50.742;4.226;2023-11-21T03:55:57;30.73;;;15.90;;
20713;SDS011;10518;50.742;4.226;2023-11-21T03:58:22;35.73;;;16.03;;
20713;SDS011;10518;50.742;4.226;2023-11-21T04:00:48;32.17;;;15.13;;
20713;SDS011;10518;50.742;4.226;2023-11-21T04:03:14;31.80;;;14.20;;
20713;SDS011;10518;50.742;4.226;2023-11-21T04:05:40;29.33;;;14.83;;
20713;SDS011;10518;50.742;4.226;2023-11-21T04:08:06;29.77;;;15.63;;
20713;SDS011;10518;50.742;4.226;2023-11-21T04:10:31;31.77;;;15.17;;
20713;SDS011;10518;50.742;4.226;2023-11-21T04:12:57;31.67;;;15.60;;
20713;SDS011;10518;50.742;4.226;2023-11-21T04:15:23;35.60;;;16.47;;
20713;SDS011;10518;50.742;4.226;2023-11-21T04:17:49;35.43;;;17.00;;
20713;SDS011;10518;50.742;4.226;2023-11-21T04:20:14;28.07;;;14.93;;
20713;SDS011;10518;50.742;4.226;2023-11-21T04:22:40;32.97;;;15.70;;
20713;SDS011;10518;50.742;4.226;2023-11-21T04:25:09;32.00;;;15.10;;
20713;SDS011;10518;50.742;4.226;2023-11-21T04:27:36;37.37;;;16.60;;
20713;SDS011;10518;50.742;4.226;2023-11-21T04:30:03;29.83;;;14.63;;
20713;SDS011;10518;50.742;4.226;2023-11-21T04:32:30;37.10;;;15.93;;
20713;SDS011;10518;50.742;4.226;2023-11-21T04:34:55;32.93;;;16.77;;
20713;SDS011;10518;50.742;4.226;2023-11-21T04:37:21;31.73;;;16.43;;
20713;SDS011;10518;50.742;4.226;2023-11-21T04:39:47;31.90;;;16.33;;
20713;SDS011;10518;50.742;4.226;2023-11-21T04:42:13;35.47;;;15.93;;
20713;SDS011;10518;50.742;4.226;2023-11-21T04:44:38;36.37;;;17.40;;
20713;SDS011;10518;50.742;4.226;2023-11-21T04:47:06;38.07;;;16.67;;
20713;SDS011;10518;50.742;4.226;2023-11-21T04:49:32;32.97;;;16.73;;
20713;SDS011;10518;50.742;4.226;2023-11-21T04:51:58;37.20;;;17.03;;
20713;SDS011;10518;50.742;4.226;2023-11-21T04:54:24;37.47;;;16.83;;
20713;SDS011;10518;50.742;4.226;2023-11-21T04:56:49;37.60;;;17.53;;
20713;SDS011;10518;50.742;4.226;2023-11-21T04:59:15;35.27;;;17.77;;
20713;SDS011;10518;50.742;4.226;2023-11-21T05:01:40;37.10;;;17.57;;
20713;SDS011;10518;50.742;4.226;2023-11-21T05:04:06;32.93;;;16.77;;
20713;SDS011;10518;50.742;4.226;2023-11-21T05:06:33;33.53;;;17.43;;
20713;SDS011;10518;50.742;4.226;2023-11-21T05:08:59;40.40;;;17.90;;
20713;SDS011;10518;50.742;4.226;2023-11-21T05:11:25;42.10;;;18.17;;
20713;SDS011;10518;50.742;4.226;2023-11-21T05:13:52;34.17;;;17.07;;
20713;SDS011;10518;50.742;4.226;2023-11-21T05:16:18;37.53;;;16.67;;
20713;SDS011;10518;50.742;4.226;2023-11-21T05:18:44;34.73;;;17.00;;
20713;SDS011;10518;50.742;4.226;2023-11-21T05:21:10;43.27;;;18.40;;
20713;SDS011;10518;50.742;4.226;2023-11-21T05:23:36;32.63;;;16.93;;
20713;SDS011;10518;50.742;4.226;2023-11-21T05:26:02;32.17;;;16.33;;
20713;SDS011;10518;50.742;4.226;2023-11-21T05:28:28;30.37;;;16.10;;
20713;SDS011;10518;50.742;4.226;2023-11-21T05:30:53;29.30;;;15.50;;
20713;SDS011;10518;50.742;4.226;2023-11-21T05:33:19;39.70;;;16.53;;
20713;SDS011;10518;50.742;4.226;2023-11-21T05:35:45;29.07;;;16.07;;
20713;SDS011;10518;50.742;4.226;2023-11-21T05:38:13;31.70;;;15.93;;
20713;SDS011;10518;50.742;4.226;2023-11-21T05:40:39;33.03;;;15.13;;
20713;SDS011;10518;50.742;4.226;2023-11-21T05:43:04;32.13;;;16.23;;
20713;SDS011;10518;50.742;4.226;2023-11-21T05:45:30;34.60;;;16.17;;
20713;SDS011;10518;50.742;4.226;2023-11-21T05:47:56;28.00;;;15.67;;
20713;SDS011;10518;50.742;4.226;2023-11-21T05:50:22;29.63;;;15.03;;
20713;SDS011;10518;50.742;4.226;2023-11-21T05:52:48;35.67;;;15.83;;
20713;SDS011;10518;50.742;4.226;2023-11-21T05:55:14;30.77;;;14.73;;
20713;SDS011;10518;50.742;4.226;2023-11-21T05:57:41;29.30;;;15.17;;
20713;SDS011;10518;50.742;4.226;2023-11-21T06:00:09;32.17;;;16.70;;
20713;SDS011;10518;50.742;4.226;2023-11-21T06:02:47;37.73;;;16.60;;
20713;SDS011;10518;50.742;4.226;2023-11-21T06:05:16;31.83;;;15.83;;
20713;SDS011;10518;50.742;4.226;2023-11-21T06:07:43;29.47;;;15.30;;
20713;SDS011;10518;50.742;4.226;2023-11-21T06:10:10;34.70;;;16.77;;
20713;SDS011;10518;50.742;4.226;2023-11-21T06:12:37;36.50;;;16.70;;
20713;SDS011;10518;50.742;4.226;2023-11-21T06:15:05;33.70;;;15.63;;
20713;SDS011;10518;50.742;4.226;2023-11-21T06:17:33;36.97;;;16.23;;
20713;SDS011;10518;50.742;4.226;2023-11-21T06:20:02;33.90;;;15.63;;
20713;SDS011;10518;50.742;4.226;2023-11-21T06:22:37;34.33;;;15.97;;
20713;SDS011;10518;50.742;4.226;2023-11-21T06:25:05;31.00;;;16.07;;
20713;SDS011;10518;50.742;4.226;2023-11-21T06:27:32;32.30;;;15.80;;
20713;SDS011;10518;50.742;4.226;2023-11-21T06:29:59;34.57;;;15.27;;
20713;SDS011;10518;50.742;4.226;2023-11-21T06:32:25;30.57;;;14.93;;
20713;SDS011;10518;50.742;4.226;2023-11-21T06:34:51;35.07;;;15.97;;
20713;SDS011;10518;50.742;4.226;2023-11-21T06:37:19;34.63;;;16.17;;
20713;SDS011;10518;50.742;4.226;2023-11-21T06:39:48;31.20;;;15.13;;
20713;SDS011;10518;50.742;4.226;2023-11-21T06:42:13;28.03;;;14.97;;
20713;SDS011;10518;50.742;4.226;2023-11-21T06:44:40;29.93;;;15.63;;
20713;SDS011;10518;50.742;4.226;2023-11-21T06:47:06;33.63;;;15.37;;
20713;SDS011;10518;50.742;4.226;2023-11-21T06:49:32;28.03;;;14.90;;
20713;SDS011;10518;50.742;4.226;2023-11-21T06:51:58;29.27;;;15.60;;
20713;SDS011;10518;50.742;4.226;2023-11-21T06:54:23;31.53;;;15.50;;
20713;SDS011;10518;50.742;4.226;2023-11-21T06:56:49;27.38;;;13.90;;
20713;SDS011;10518;50.742;4.226;2023-11-21T06:59:15;28.00;;;14.33;;
20713;SDS011;10518;50.742;4.226;2023-11-21T07:01:41;36.87;;;16.37;;
20713;SDS011;10518;50.742;4.226;2023-11-21T07:04:06;35.03;;;15.57;;
20713;SDS011;10518;50.742;4.226;2023-11-21T07:06:33;28.03;;;14.10;;
20713;SDS011;10518;50.742;4.226;2023-11-21T07:09:00;30.43;;;15.87;;
20713;SDS011;10518;50.742;4.226;2023-11-21T07:11:26;36.23;;;15.73;;
20713;SDS011;10518;50.742;4.226;2023-11-21T07:13:52;29.20;;;15.73;;
20713;SDS011;10518;50.742;4.226;2023-11-21T07:16:18;36.43;;;15.90;;
20713;SDS011;10518;50.742;4.226;2023-11-21T07:18:44;33.17;;;16.63;;
20713;SDS011;10518;50.742;4.226;2023-11-21T07:21:09;34.15;;;16.30;;
20713;SDS011;10518;50.742;4.226;2023-11-21T07:23:37;35.55;;;16.60;;
20713;SDS011;10518;50.742;4.226;2023-11-21T07:26:03;31.73;;;15.50;;
20713;SDS011;10518;50.742;4.226;2023-11-21T07:28:33;34.17;;;16.50;;
20713;SDS011;10518;50.742;4.226;2023-11-21T07:30:59;33.20;;;17.13;;
20713;SDS011;10518;50.742;4.226;2023-11-21T07:33:25;40.97;;;18.17;;
20713;SDS011;10518;50.742;4.226;2023-11-21T07:35:50;35.40;;;17.37;;
20713;SDS011;10518;50.742;4.226;2023-11-21T07:38:16;45.40;;;18.13;;
20713;SDS011;10518;50.742;4.226;2023-11-21T07:40:42;44.60;;;18.20;;
20713;SDS011;10518;50.742;4.226;2023-11-21T07:43:08;43.50;;;16.92;;
20713;SDS011;10518;50.742;4.226;2023-11-21T07:45:35;36.72;;;17.58;;
20713;SDS011;10518;50.742;4.226;2023-11-21T07:48:01;44.38;;;17.08;;
20713;SDS011;10518;50.742;4.226;2023-11-21T07:50:28;39.45;;;17.33;;
20713;SDS011;10518;50.742;4.226;2023-11-21T07:52:54;40.17;;;17.40;;
20713;SDS011;10518;50.742;4.226;2023-11-21T07:55:20;48.17;;;18.10;;
20713;SDS011;10518;50.742;4.226;2023-11-21T07:57:46;36.92;;;16.98;;
20713;SDS011;10518;50.742;4.226;2023-11-21T08:00:12;44.20;;;17.80;;
20713;SDS011;10518;50.742;4.226;2023-11-21T08:02:38;41.72;;;17.60;;
20713;SDS011;10518;50.742;4.226;2023-11-21T08:05:07;47.00;;;17.87;;
20713;SDS011;10518;50.742;4.226;2023-11-21T08:07:33;50.67;;;19.55;;
20713;SDS011;10518;50.742;4.226;2023-11-21T08:09:58;46.10;;;17.98;;
20713;SDS011;10518;50.742;4.226;2023-11-21T08:12:24;51.97;;;18.63;;
20713;SDS011;10518;50.742;4.226;2023-11-21T08:14:52;42.60;;;18.23;;
20713;SDS011;10518;50.742;4.226;2023-11-21T08:17:18;52.72;;;19.25;;
20713;SDS011;10518;50.742;4.226;2023-11-21T08:19:45;44.10;;;19.02;;
20713;SDS011;10518;50.742;4.226;2023-11-21T08:22:14;43.28;;;18.27;;
20713;SDS011;10518;50.742;4.226;2023-11-21T08:24:43;48.55;;;18.83;;
20713;SDS011;10518;50.742;4.226;2023-11-21T08:27:09;55.15;;;19.92;;
20713;SDS011;10518;50.742;4.226;2023-11-21T08:29:35;56.40;;;20.45;;
20713;SDS011;10518;50.742;4.226;2023-11-21T08:32:01;57.95;;;20.30;;
20713;SDS011;10518;50.742;4.226;2023-11-21T08:34:27;46.92;;;20.20;;
20713;SDS011;10518;50.742;4.226;2023-11-21T08:36:53;54.83;;;21.73;;
20713;SDS011;10518;50.742;4.226;2023-11-21T08:39:20;63.13;;;21.80;;
20713;SDS011;10518;50.742;4.226;2023-11-21T08:41:49;63.80;;;21.13;;
20713;SDS011;10518;50.742;4.226;2023-11-21T08:44:15;58.88;;;21.80;;
20713;SDS011;10518;50.742;4.226;2023-11-21T08:46:43;64.40;;;21.92;;
20713;SDS011;10518;50.742;4.226;2023-11-21T08:49:10;61.05;;;21.55;;
20713;SDS011;10518;50.742;4.226;2023-11-21T08:51:36;61.17;;;22.08;;
20713;SDS011;10518;50.742;4.226;2023-11-21T08:54:02;70.07;;;23.52;;
20713;SDS011;10518;50.742;4.226;2023-11-21T08:56:32;55.75;;;21.83;;
20713;SDS011;10518;50.742;4.226;2023-11-21T08:58:58;64.03;;;21.45;;
20713;SDS011;10518;50.742;4.226;2023-11-21T09:01:27;60.92;;;21.67;;
20713;SDS011;10518;50.742;4.226;2023-11-21T09:03:53;61.97;;;22.17;;
20713;SDS011;10518;50.742;4.226;2023-11-21T09:06:18;56.50;;;20.30;;
20713;SDS011;10518;50.742;4.226;2023-11-21T09:08:44;49.15;;;19.98;;
20713;SDS011;10518;50.742;4.226;2023-11-21T09:11:10;46.70;;;19.00;;
20713;SDS011;10518;50.742;4.226;2023-11-21T09:13:35;51.58;;;19.00;;
20713;SDS011;10518;50.742;4.226;2023-11-21T09:16:01;49.45;;;18.77;;
20713;SDS011;10518;50.742;4.226;2023-11-21T09:18:27;55.40;;;20.00;;
20713;SDS011;10518;50.742;4.226;2023-11-21T09:20:52;46.63;;;18.55;;
20713;SDS011;10518;50.742;4.226;2023-11-21T09:23:18;56.13;;;18.67;;
20713;SDS011;10518;50.742;4.226;2023-11-21T09:25:44;47.88;;;19.48;;
20713;SDS011;10518;50.742;4.226;2023-11-21T09:28:11;53.58;;;20.20;;
20713;SDS011;10518;50.742;4.226;2023-11-21T09:30:37;55.03;;;20.15;;
20713;SDS011;10518;50.742;4.226;2023-11-21T09:33:03;49.40;;;17.83;;
20713;SDS011;10518;50.742;4.226;2023-11-21T09:35:33;55.67;;;19.73;;
20713;SDS011;10518;50.742;4.226;2023-11-21T09:37:59;51.95;;;19.60;;
20713;SDS011;10518;50.742;4.226;2023-11-21T09:40:26;48.45;;;18.67;;
20713;SDS011;10518;50.742;4.226;2023-11-21T09:42:54;50.78;;;18.20;;
20713;SDS011;10518;50.742;4.226;2023-11-21T09:45:27;53.22;;;18.17;;
20713;SDS011;10518;50.742;4.226;2023-11-21T09:47:54;43.67;;;16.88;;
20713;SDS011;10518;50.742;4.226;2023-11-21T09:50:21;40.35;;;17.27;;
20713;SDS011;10518;50.742;4.226;2023-11-21T09:52:54;43.67;;;16.77;;
20713;SDS011;10518;50.742;4.226;2023-11-21T09:55:35;44.25;;;17.90;;
20713;SDS011;10518;50.742;4.226;2023-11-21T09:58:02;46.60;;;17.48;;
20713;SDS011;10518;50.742;4.226;2023-11-21T10:00:30;46.30;;;17.58;;
20713;SDS011;10518;50.742;4.226;2023-11-21T10:02:58;47.30;;;17.73;;
20713;SDS011;10518;50.742;4.226;2023-11-21T10:05:23;42.50;;;15.43;;
20713;SDS011;10518;50.742;4.226;2023-11-21T10:07:49;47.42;;;17.85;;
20713;SDS011;10518;50.742;4.226;2023-11-21T10:10:18;38.38;;;15.52;;
20713;SDS011;10518;50.742;4.226;2023-11-21T10:12:45;42.47;;;17.17;;
20713;SDS011;10518;50.742;4.226;2023-11-21T10:15:16;38.42;;;16.45;;
20713;SDS011;10518;50.742;4.226;2023-11-21T10:17:42;45.55;;;18.08;;
20713;SDS011;10518;50.742;4.226;2023-11-21T10:20:10;51.95;;;15.80;;
20713;SDS011;10518;50.742;4.226;2023-11-21T10:22:41;41.03;;;16.10;;
20713;SDS011;10518;50.742;4.226;2023-11-21T10:25:08;44.10;;;15.83;;
20713;SDS011;10518;50.742;4.226;2023-11-21T10:27:34;46.45;;;16.77;;
20713;SDS011;10518;50.742;4.226;2023-11-21T10:30:02;43.53;;;17.35;;
20713;SDS011;10518;50.742;4.226;2023-11-21T10:32:29;42.83;;;16.60;;
20713;SDS011;10518;50.742;4.226;2023-11-21T10:35:01;41.60;;;16.58;;
20713;SDS011;10518;50.742;4.226;2023-11-21T10:37:31;40.75;;;16.30;;
20713;SDS011;10518;50.742;4.226;2023-11-21T10:40:00;32.20;;;13.98;;
20713;SDS011;10518;50.742;4.226;2023-11-21T10:42:26;32.67;;;14.50;;
20713;SDS011;10518;50.742;4.226;2023-11-21T10:44:52;34.50;;;14.25;;
20713;SDS011;10518;50.742;4.226;2023-11-21T10:47:19;32.58;;;14.40;;
20713;SDS011;10518;50.742;4.226;2023-11-21T10:49:48;30.27;;;13.90;;
20713;SDS011;10518;50.742;4.226;2023-11-21T10:52:14;29.75;;;14.55;;
20713;SDS011;10518;50.742;4.226;2023-11-21T10:54:43;32.40;;;14.45;;
20713;SDS011;10518;50.742;4.226;2023-11-21T10:57:09;31.77;;;14.23;;
20713;SDS011;10518;50.742;4.226;2023-11-21T10:59:36;35.38;;;15.35;;
20713;SDS011;10518;50.742;4.226;2023-11-21T11:02:04;33.47;;;15.18;;
20713;SDS011;10518;50.742;4.226;2023-11-21T11:04:47;35.72;;;16.30;;
20713;SDS011;10518;50.742;4.226;2023-11-21T11:07:13;34.13;;;15.90;;
20713;SDS011;10518;50.742;4.226;2023-11-21T11:09:41;37.72;;;16.63;;
20713;SDS011;10518;50.742;4.226;2023-11-21T11:12:07;36.80;;;17.42;;
20713;SDS011;10518;50.742;4.226;2023-11-21T11:14:34;33.35;;;17.73;;
20713;SDS011;10518;50.742;4.226;2023-11-21T11:17:01;32.85;;;17.25;;
20713;SDS011;10518;50.742;4.226;2023-11-21T11:19:29;34.75;;;16.60;;
20713;SDS011;10518;50.742;4.226;2023-11-21T11:38:27;30.50;;;14.40;;
20713;SDS011;10518;50.742;4.226;2023-11-21T11:40:59;31.88;;;14.82;;
20713;SDS011;10518;50.742;4.226;2023-11-21T11:43:29;29.67;;;14.45;;
20713;SDS011;10518;50.742;4.226;2023-11-21T11:45:56;24.08;;;13.48;;
20713;SDS011;10518;50.742;4.226;2023-11-21T11:48:22;27.92;;;15.00;;
20713;SDS011;10518;50.742;4.226;2023-11-21T11:53:35;26.30;;;13.40;;
20713;SDS011;10518;50.742;4.226;2023-11-21T11:56:50;24.85;;;12.48;;
20713;SDS011;10518;50.742;4.226;2023-11-21T11:58:56;24.50;;;12.93;;
20713;SDS011;10518;50.742;4.226;2023-11-21T12:01:24;26.77;;;13.15;;
20713;SDS011;10518;50.742;4.226;2023-11-21T12:06:36;22.42;;;12.23;;
20713;SDS011;10518;50.742;4.226;2023-11-21T12:09:02;20.50;;;11.52;;
20713;SDS011;10518;50.742;4.226;2023-11-21T12:11:31;22.42;;;10.60;;
20713;SDS011;10518;50.742;4.226;2023-11-21T12:13:57;19.55;;;10.15;;
20713;SDS011;10518;50.742;4.226;2023-11-21T12:16:24;22.42;;;11.50;;
20713;SDS011;10518;50.742;4.226;2023-11-21T12:18:52;16.85;;;9.57;;
20713;SDS011;10518;50.742;4.226;2023-11-21T12:21:19;20.08;;;9.80;;
20713;SDS011;10518;50.742;4.226;2023-11-21T12:23:45;17.35;;;9.25;;
20713;SDS011;10518;50.742;4.226;2023-11-21T12:26:12;16.83;;;10.18;;
20713;SDS011;10518;50.742;4.226;2023-11-21T12:28:38;16.83;;;9.57;;
20713;SDS011;10518;50.742;4.226;2023-11-21T12:31:04;16.23;;;9.43;;
20713;SDS011;10518;50.742;4.226;2023-11-21T12:33:31;18.33;;;9.23;;
20713;SDS011;10518;50.742;4.226;2023-11-21T12:35:58;19.10;;;9.40;;
20713;SDS011;10518;50.742;4.226;2023-11-21T12:38:23;19.27;;;10.93;;
20713;SDS011;10518;50.742;4.226;2023-11-21T12:40:49;17.42;;;9.43;;
20713;SDS011;10518;50.742;4.226;2023-11-21T12:43:16;15.73;;;8.48;;
20713;SDS011;10518;50.742;4.226;2023-11-21T12:45:43;12.77;;;7.90;;
20713;SDS011;10518;50.742;4.226;2023-11-21T12:48:09;13.23;;;8.00;;
20713;SDS011;10518;50.742;4.226;2023-11-21T12:50:37;11.70;;;6.82;;
20713;SDS011;10518;50.742;4.226;2023-11-21T12:53:07;14.70;;;6.63;;
20713;SDS011;10518;50.742;4.226;2023-11-21T12:55:37;12.05;;;7.15;;
20713;SDS011;10518;50.742;4.226;2023-11-21T12:58:04;11.43;;;6.13;;
20713;SDS011;10518;50.742;4.226;2023-11-21T13:00:42;12.60;;;6.57;;
20713;SDS011;10518;50.742;4.226;2023-11-21T13:03:10;9.95;;;5.70;;
20713;SDS011;10518;50.742;4.226;2023-11-21T13:05:41;9.27;;;5.57;;
20713;SDS011;10518;50.742;4.226;2023-11-21T13:08:09;10.23;;;6.43;;
20713;SDS011;10518;50.742;4.226;2023-11-21T13:10:38;13.68;;;6.88;;
20713;SDS011;10518;50.742;4.226;2023-11-21T13:13:06;12.10;;;6.30;;
20713;SDS011;10518;50.742;4.226;2023-11-21T13:15:34;10.10;;;6.40;;
20713;SDS011;10518;50.742;4.226;2023-11-21T13:18:01;13.95;;;6.80;;
20713;SDS011;10518;50.742;4.226;2023-11-21T13:20:27;10.15;;;7.32;;
20713;SDS011;10518;50.742;4.226;2023-11-21T13:22:55;10.98;;;6.03;;
20713;SDS011;10518;50.742;4.226;2023-11-21T13:25:25;12.25;;;5.75;;
20713;SDS011;10518;50.742;4.226;2023-11-21T13:27:55;10.48;;;6.25;;
20713;SDS011;10518;50.742;4.226;2023-11-21T13:30:24;10.63;;;6.38;;
20713;SDS011;10518;50.742;4.226;2023-11-21T13:32:58;14.60;;;6.80;;
20713;SDS011;10518;50.742;4.226;2023-11-21T13:35:27;14.13;;;6.40;;
20713;SDS011;10518;50.742;4.226;2023-11-21T13:38:06;13.00;;;6.38;;
20713;SDS011;10518;50.742;4.226;2023-11-21T13:40:34;12.90;;;7.00;;
20713;SDS011;10518;50.742;4.226;2023-11-21T13:43:05;10.18;;;6.43;;
20713;SDS011;10518;50.742;4.226;2023-11-21T13:45:34;11.32;;;6.10;;
20713;SDS011;10518;50.742;4.226;2023-11-21T13:48:01;14.30;;;5.97;;
20713;SDS011;10518;50.742;4.226;2023-11-21T13:50:27;10.82;;;5.88;;
20713;SDS011;10518;50.742;4.226;2023-11-21T13:53:00;12.07;;;5.95;;
20713;SDS011;10518;50.742;4.226;2023-11-21T13:55:41;12.70;;;6.35;;
20713;SDS011;10518;50.742;4.226;2023-11-21T13:58:07;10.45;;;7.25;;
20713;SDS011;10518;50.742;4.226;2023-11-21T14:00:36;14.82;;;8.00;;
20713;SDS011;10518;50.742;4.226;2023-11-21T14:03:11;12.70;;;7.95;;
20713;SDS011;10518;50.742;4.226;2023-11-21T14:05:45;17.00;;;7.97;;
20713;SDS011;10518;50.742;4.226;2023-11-21T14:08:18;13.68;;;8.25;;
20713;SDS011;10518;50.742;4.226;2023-11-21T14:10:46;12.25;;;7.40;;
20713;SDS011;10518;50.742;4.226;2023-11-21T14:13:22;11.20;;;7.20;;
20713;SDS011;10518;50.742;4.226;2023-11-21T14:15:49;10.93;;;6.70;;
20713;SDS011;10518;50.742;4.226;2023-11-21T14:18:25;9.13;;;6.13;;
20713;SDS011;10518;50.742;4.226;2023-11-21T14:21:03;10.07;;;6.25;;
20713;SDS011;10518;50.742;4.226;2023-11-21T14:23:30;10.63;;;6.53;;
20713;SDS011;10518;50.742;4.226;2023-11-21T14:25:58;11.90;;;6.25;;
20713;SDS011;10518;50.742;4.226;2023-11-21T14:28:26;13.80;;;6.60;;
20713;SDS011;10518;50.742;4.226;2023-11-21T14:30:51;11.15;;;6.40;;
20713;SDS011;10518;50.742;4.226;2023-11-21T14:33:17;10.85;;;6.30;;
20713;SDS011;10518;50.742;4.226;2023-11-21T14:35:43;9.35;;;6.40;;
20713;SDS011;10518;50.742;4.226;2023-11-21T14:38:09;8.90;;;5.93;;
20713;SDS011;10518;50.742;4.226;2023-11-21T14:40:35;9.65;;;6.35;;
20713;SDS011;10518;50.742;4.226;2023-11-21T14:43:04;10.25;;;6.47;;
20713;SDS011;10518;50.742;4.226;2023-11-21T14:45:32;11.63;;;6.95;;